.
WxDataArchive / Data Records for 2012-06-13
2012-06-12 June 2012 2012-06-14

Data Records for Wednesday, 13 June 2012

Time	Temp	Chill	HIndex	Humid	Dewpt	 Wind 	HiWind	WindDir	Rain 	Barom 
-----	----	-----	------	-----	-----	------	------	-------	-----	----- 
00:00	59.5	59.5	59.5	58	44.7	0	1	315	0.00	30.076 
00:05	59.5	59.5	59.5	58	44.7	0	0	---	0.00	30.076 
00:10	59.5	59.5	59.5	59	45.2	0	0	---	0.00	30.076 
00:15	59.3	59.3	59.3	59	45.0	0	0	---	0.00	30.081 
00:20	59.2	59.2	59.2	60	45.3	0	0	---	0.00	30.081 
00:25	58.9	58.9	58.9	60	45.0	0	1	315	0.00	30.081 
00:30	58.7	58.7	58.7	60	44.8	0	1	315	0.00	30.086 
00:35	58.7	58.7	58.7	61	45.3	0	0	---	0.00	30.086 
00:40	58.6	58.6	58.6	61	45.2	0	0	---	0.00	30.086 
00:45	58.4	58.4	58.4	62	45.4	0	1	315	0.00	30.087 
00:50	58.3	58.3	58.3	62	45.3	0	1	315	0.00	30.087 
00:55	58.1	58.1	58.1	62	45.1	0	0	---	0.00	30.087 
01:00	58.1	58.1	58.1	63	45.6	0	1	315	0.00	30.089 
01:05	58.1	58.1	58.1	63	45.6	0	0	---	0.00	30.089 
01:10	58.0	58.0	58.0	63	45.5	0	0	---	0.00	30.089 
01:15	57.8	57.8	57.8	63	45.3	0	1	315	0.00	30.089 
01:20	57.6	57.6	57.6	64	45.5	0	0	---	0.00	30.089 
01:25	57.5	57.5	57.5	64	45.4	0	0	---	0.00	30.089 
01:30	57.2	57.2	57.2	65	45.5	0	1	315	0.00	30.089 
01:35	57.2	57.2	57.2	65	45.5	0	1	315	0.00	30.089 
01:40	57.2	57.2	57.2	65	45.5	0	1	315	0.00	30.089 
01:45	57.0	57.0	57.0	66	45.8	0	1	315	0.00	30.094 
01:50	57.0	57.0	57.0	66	45.8	0	1	315	0.00	30.094 
01:55	56.9	56.9	56.9	67	46.1	0	1	315	0.00	30.094 
02:00	56.9	56.9	56.9	67	46.1	0	1	315	0.00	30.097 
02:05	56.9	56.9	56.9	67	46.1	0	1	315	0.00	30.097 
02:10	56.9	56.9	56.9	68	46.4	0	1	315	0.00	30.097 
02:15	56.9	56.9	56.9	68	46.4	0	1	315	0.00	30.097 
02:20	56.9	56.9	56.9	68	46.4	0	1	315	0.00	30.097 
02:25	56.9	56.9	56.9	68	46.4	0	3	338	0.00	30.097 
02:30	57.0	57.0	57.0	68	46.5	0	1	338	0.00	30.097 
02:35	57.0	57.0	57.0	68	46.5	0	1	338	0.00	30.097 
02:40	57.0	57.0	57.0	68	46.5	0	1	338	0.00	30.097 
02:45	57.0	57.0	57.0	68	46.5	0	1	338	0.00	30.098 
02:50	56.9	56.9	56.9	69	46.8	0	1	338	0.00	30.098 
02:55	56.9	56.9	56.9	69	46.8	0	1	338	0.00	30.098 
03:00	57.0	57.0	57.0	69	46.9	0	1	338	0.00	30.099 
03:05	57.0	57.0	57.0	69	46.9	0	1	338	0.00	30.099 
03:10	56.9	56.9	56.9	69	46.8	0	1	338	0.00	30.099 
03:15	56.9	56.9	56.9	69	46.8	0	1	338	0.00	30.101 
03:20	56.7	56.7	56.7	69	46.6	0	1	338	0.00	30.101 
03:25	56.7	56.7	56.7	69	46.6	0	2	338	0.00	30.101 
03:30	56.6	56.6	56.6	69	46.5	0	2	338	0.00	30.102 
03:35	56.6	56.6	56.6	69	46.5	0	4	158	0.00	30.102 
03:40	56.6	56.6	56.6	69	46.5	0	2	158	0.00	30.102 
03:45	56.5	56.5	56.5	69	46.5	0	2	158	0.00	30.104 
03:50	56.5	56.5	56.5	68	46.1	0	1	158	0.00	30.104 
03:55	56.5	56.5	56.5	68	46.1	0	5	158	0.00	30.104 
04:00	56.5	56.5	56.5	66	45.3	0	2	112	0.00	30.111 
04:05	56.5	56.5	56.5	65	44.9	1	4	90	0.00	30.111 
04:10	56.5	56.5	56.5	64	44.5	0	2	68	0.00	30.111 
04:15	56.5	56.5	56.5	64	44.5	0	3	68	0.00	30.117 
04:20	56.3	56.3	56.3	63	43.9	0	3	68	0.00	30.117 
04:25	56.2	56.2	56.2	63	43.8	0	1	68	0.00	30.117 
04:30	56.0	56.0	56.0	63	43.6	0	2	68	0.00	30.123 
04:35	56.0	56.0	56.0	63	43.6	0	4	68	0.00	30.123 
04:40	55.9	55.9	55.9	63	43.5	0	4	68	0.00	30.123 
04:45	55.9	55.9	55.9	62	43.1	0	3	68	0.00	30.131 
04:50	55.7	55.7	55.7	62	42.9	0	2	68	0.00	30.131 
04:55	55.6	55.6	55.6	62	42.8	0	2	68	0.00	30.131 
05:00	55.4	55.4	55.4	62	42.6	1	3	112	0.00	30.137 
05:05	55.3	55.3	55.3	62	42.5	0	2	112	0.00	30.137 
05:10	55.1	55.1	55.1	63	42.7	0	1	112	0.00	30.137 
05:15	55.0	55.0	55.0	64	43.0	0	1	112	0.00	30.137 
05:20	54.7	54.7	54.7	64	42.8	0	1	112	0.00	30.137 
05:25	54.5	54.5	54.5	65	43.0	0	2	112	0.00	30.137 
05:30	54.4	54.4	54.4	65	42.9	0	1	112	0.00	30.147 
05:35	54.1	54.1	54.1	65	42.6	0	0	---	0.00	30.147 
05:40	53.8	53.8	53.8	65	42.3	0	0	---	0.00	30.147 
05:45	53.6	53.6	53.6	66	42.5	0	0	---	0.00	30.144 
05:50	53.3	53.3	53.3	66	42.2	0	0	---	0.00	30.144 
05:55	53.1	53.1	53.1	67	42.4	0	0	---	0.00	30.144 
06:00	52.8	52.8	52.8	68	42.5	0	0	---	0.00	30.148 
06:05	52.6	52.6	52.6	69	42.7	0	0	---	0.00	30.148 
06:10	52.3	52.3	52.3	69	42.4	0	0	---	0.00	30.148 
06:15	52.3	52.3	52.3	70	42.8	0	2	112	0.00	30.148 
06:20	52.3	52.3	52.3	70	42.8	0	2	112	0.00	30.148 
06:25	52.6	52.6	52.6	69	42.7	0	3	112	0.00	30.148 
06:30	52.8	52.8	52.8	68	42.5	0	4	112	0.00	30.155 
06:35	53.1	53.1	53.1	68	42.8	0	2	112	0.00	30.155 
06:40	53.2	53.2	53.2	68	42.9	1	3	112	0.00	30.155 
06:45	53.2	53.2	53.2	68	42.9	0	2	45	0.00	30.158 
06:50	53.3	53.3	53.3	68	43.0	0	3	45	0.00	30.158 
06:55	53.5	53.5	53.5	68	43.2	1	4	90	0.00	30.158 
07:00	53.5	53.5	53.5	68	43.2	1	4	90	0.00	30.160 
07:05	53.6	53.6	53.6	68	43.3	1	4	112	0.00	30.160 
07:10	53.9	53.9	53.9	68	43.6	1	4	112	0.00	30.160 
07:15	54.2	54.2	54.2	68	43.9	1	4	68	0.00	30.167 
07:20	54.5	54.5	54.5	68	44.2	1	4	68	0.00	30.167 
07:25	55.0	55.0	55.0	66	43.9	1	7	112	0.00	30.167 
07:30	55.7	55.7	55.7	64	43.7	2	6	112	0.00	30.170 
07:35	56.2	56.2	56.2	64	44.2	1	3	68	0.00	30.170 
07:40	56.7	56.7	56.7	62	43.8	1	3	68	0.00	30.170 
07:45	57.3	57.3	57.3	60	43.5	0	3	68	0.00	30.186 
07:50	58.1	58.1	58.1	58	43.4	1	3	68	0.00	30.186 
07:55	58.6	58.6	58.6	57	43.4	2	4	68	0.00	30.186 
08:00	58.9	58.9	58.9	56	43.2	1	3	68	0.00	30.185 
08:05	59.3	59.3	59.3	54	42.7	1	4	68	0.00	30.185 
08:10	59.5	59.5	59.5	52	41.9	3	6	90	0.00	30.185 
08:15	59.5	59.5	59.5	51	41.4	3	9	112	0.00	30.184 
08:20	59.9	59.9	59.9	49	40.7	2	6	68	0.00	30.184 
08:25	59.9	59.9	59.9	47	39.6	4	9	90	0.00	30.184 
08:30	60.1	60.1	60.1	47	39.8	3	7	90	0.00	30.180 
08:35	60.1	60.1	60.1	47	39.8	4	10	90	0.00	30.180 
08:40	60.2	60.2	60.2	46	39.3	4	11	90	0.00	30.180 
08:45	60.7	60.7	60.7	45	39.2	3	8	90	0.00	30.187 
08:50	61.2	61.2	61.2	44	39.1	3	7	90	0.00	30.187 
08:55	61.3	61.3	61.3	43	38.6	4	7	90	0.00	30.187 
09:00	61.3	61.3	61.3	43	38.6	4	8	90	0.00	30.186 
09:05	61.8	61.8	61.8	42	38.5	3	10	90	0.00	30.186 
09:10	62.4	62.4	62.4	41	38.4	2	7	90	0.00	30.186 
09:15	62.7	62.7	62.7	43	39.9	1	5	45	0.00	30.190 
09:20	63.2	63.2	63.2	39	37.8	3	7	90	0.00	30.190 
09:25	63.4	63.4	63.4	39	38.0	2	5	90	0.00	30.190 
09:30	63.7	63.7	63.7	39	38.3	1	5	112	0.00	30.187 
09:35	64.0	64.0	64.0	39	38.5	2	9	112	0.00	30.187 
09:40	64.3	64.3	64.3	37	37.5	3	7	90	0.00	30.187 
09:45	64.0	64.0	64.0	38	37.9	3	10	90	0.00	30.186 
09:50	64.0	64.0	64.0	37	37.2	4	10	90	0.00	30.186 
09:55	64.2	64.2	64.2	38	38.1	2	9	90	0.00	30.186 
10:00	64.7	64.7	64.7	36	37.1	3	7	90	0.00	30.186 
10:05	65.2	65.2	65.2	36	37.6	2	6	90	0.00	30.186 
10:10	65.3	65.3	65.3	37	38.4	3	6	112	0.00	30.186 
10:15	65.8	65.8	65.8	35	37.4	2	5	68	0.00	30.179 
10:20	66.1	66.1	66.1	32	35.4	2	5	90	0.00	30.179 
10:25	65.8	65.8	65.8	34	36.6	3	9	90	0.00	30.179 
10:30	66.1	66.1	66.1	33	36.2	1	5	90	0.00	30.177 
10:35	66.6	66.6	66.6	33	36.6	2	8	90	0.00	30.177 
10:40	66.1	66.1	66.1	33	36.2	3	7	90	0.00	30.177 
10:45	66.1	66.1	66.1	31	34.6	3	6	90	0.00	30.176 
10:50	66.4	66.4	66.4	32	35.6	2	6	112	0.00	30.176 
10:55	66.8	66.8	66.8	34	37.5	0	2	90	0.00	30.176 
11:00	67.3	67.3	67.3	30	34.8	2	7	90	0.00	30.177 
11:05	67.3	67.3	67.3	29	33.9	2	5	90	0.00	30.177 
11:10	67.6	67.6	67.6	31	35.9	1	4	112	0.00	30.177 
11:15	68.6	68.6	68.6	32	37.6	1	4	112	0.00	30.180 
11:20	69.3	69.3	69.3	27	33.9	2	5	112	0.00	30.180 
11:25	69.1	69.1	69.1	28	34.6	2	7	90	0.00	30.180 
11:30	68.6	68.6	68.6	30	35.9	1	4	90	0.00	30.183 
11:35	68.8	68.8	68.8	27	33.5	2	5	90	0.00	30.183 
11:40	68.8	68.8	68.8	27	33.5	2	6	90	0.00	30.183 
11:45	69.1	69.1	69.1	28	34.6	1	3	90	0.00	30.185 
11:50	69.6	69.6	69.6	29	35.9	0	2	90	0.00	30.185 
11:55	70.3	70.3	70.3	25	32.8	1	4	112	0.00	30.185 
12:00	70.1	70.1	70.1	27	34.6	1	3	112	0.00	30.174 
12:05	70.3	70.3	70.3	27	34.7	1	5	112	0.00	30.174 
12:10	70.4	70.4	70.4	28	35.7	1	4	112	0.00	30.174 
12:15	70.6	70.6	70.6	25	33.1	1	6	112	0.00	30.174 
12:20	70.8	70.8	70.8	26	34.2	1	6	112	0.00	30.174 
12:25	71.3	71.3	71.3	26	34.6	1	4	112	0.00	30.174 
12:30	71.6	71.6	71.6	26	34.9	1	5	112	0.00	30.174 
12:35	71.8	71.8	71.8	25	34.1	1	3	112	0.00	30.174 
12:40	71.8	71.8	71.8	27	36.0	1	3	112	0.00	30.174 
12:45	72.1	72.1	72.1	25	34.3	2	7	112	0.00	30.172 
12:50	72.1	72.1	72.1	25	34.3	1	4	112	0.00	30.172 
12:55	72.0	72.0	72.0	25	34.2	1	6	68	0.00	30.172 
13:00	72.0	72.0	72.0	25	34.2	1	4	68	0.00	30.173 
13:05	72.3	72.3	72.3	27	36.4	2	5	90	0.00	30.173 
13:10	72.5	72.5	72.5	24	33.6	2	6	45	0.00	30.173 
13:15	73.2	73.2	73.2	25	35.3	1	4	45	0.00	30.171 
13:20	73.2	73.2	73.2	23	33.2	1	3	270	0.00	30.171 
13:25	73.3	73.3	73.3	23	33.3	1	4	90	0.00	30.171 
13:30	73.7	73.7	73.7	27	37.6	1	4	90	0.00	30.168 
13:35	74.6	74.6	74.6	24	35.4	1	2	90	0.00	30.168 
13:40	74.2	74.2	74.2	22	32.9	1	2	270	0.00	30.168 
13:45	73.9	73.9	73.9	21	31.5	2	5	112	0.00	30.166 
13:50	73.7	73.7	73.7	25	35.7	1	4	90	0.00	30.166 
13:55	73.9	73.9	73.9	23	33.8	2	4	90	0.00	30.166 
14:00	74.4	74.4	74.4	25	36.3	1	4	90	0.00	30.156 
14:05	74.7	74.7	74.7	24	35.5	1	3	315	0.00	30.156 
14:10	74.9	74.9	74.9	21	32.3	0	2	315	0.00	30.156 
14:15	75.3	75.3	76.2	21	32.7	1	3	315	0.00	30.155 
14:20	75.4	75.4	76.3	21	32.7	1	5	112	0.00	30.155 
14:25	75.1	75.1	76.1	21	32.5	3	5	90	0.00	30.155 
14:30	74.7	74.7	74.7	22	33.3	1	4	90	0.00	30.153 
14:35	74.9	74.9	74.9	20	31.1	1	6	112	0.00	30.153 
14:40	74.9	74.9	74.9	21	32.3	2	8	90	0.00	30.153 
14:45	75.4	75.4	76.2	20	31.5	0	2	90	0.00	30.153 
14:50	75.6	75.6	76.2	20	31.7	1	6	270	0.00	30.153 
14:55	75.6	75.6	76.2	20	31.7	2	5	90	0.00	30.153 
15:00	75.3	75.3	76.2	21	32.7	2	5	90	0.00	30.144 
15:05	74.9	74.9	74.9	20	31.1	2	6	90	0.00	30.144 
15:10	75.3	75.3	76.2	21	32.7	2	7	90	0.00	30.144 
15:15	75.8	75.8	76.3	20	31.9	2	7	90	0.00	30.136 
15:20	76.1	76.1	76.6	21	33.3	1	4	90	0.00	30.136 
15:25	76.5	76.5	76.8	21	33.6	1	5	112	0.00	30.136 
15:30	76.8	76.8	76.6	18	30.1	1	3	112	0.00	30.127 
15:35	77.2	77.2	76.9	18	30.4	1	4	112	0.00	30.127 
15:40	77.4	77.4	77.1	20	33.2	2	7	90	0.00	30.127 
15:45	77.4	77.4	77.3	22	35.6	2	9	90	0.00	30.121 
15:50	77.6	77.6	77.2	20	33.3	1	2	90	0.00	30.121 
15:55	77.4	77.4	77.0	19	31.9	1	4	45	0.00	30.121 
16:00	77.4	77.4	77.0	19	31.9	1	4	270	0.00	30.122 
16:05	77.4	77.4	77.0	19	31.9	1	4	270	0.00	30.122 
16:10	77.6	77.6	77.3	21	34.6	1	7	248	0.00	30.122 
16:15	77.9	77.9	77.5	22	36.0	1	5	90	0.00	30.123 
16:20	77.9	77.9	77.4	20	33.6	0	2	90	0.00	30.123 
16:25	77.6	77.6	77.2	19	32.1	1	3	90	0.00	30.123 
16:30	77.7	77.7	77.4	21	34.6	2	7	90	0.00	30.123 
16:35	77.2	77.2	77.1	21	34.2	3	7	112	0.00	30.123 
16:40	76.7	76.7	76.8	20	32.6	3	9	68	0.00	30.123 
16:45	76.7	76.7	76.8	20	32.6	3	6	90	0.00	30.120 
16:50	76.7	76.7	76.7	19	31.3	2	4	90	0.00	30.120 
16:55	76.7	76.7	76.8	20	32.6	2	4	90	0.00	30.120 
17:00	76.5	76.5	76.4	17	28.4	3	7	90	0.00	30.115 
17:05	76.1	76.1	76.5	20	32.1	2	9	90	0.00	30.115 
17:10	76.5	76.5	76.5	18	29.8	1	4	90	0.00	30.115 
17:15	76.5	76.5	76.5	18	29.8	3	10	90	0.00	30.117 
17:20	76.5	76.5	76.4	17	28.4	2	7	112	0.00	30.117 
17:25	76.8	76.8	76.7	19	31.4	2	4	112	0.00	30.117 
17:30	77.0	77.0	76.7	18	30.2	2	5	112	0.00	30.110 
17:35	77.4	77.4	77.0	19	31.9	2	6	90	0.00	30.110 
17:40	77.4	77.4	77.0	18	30.6	3	7	90	0.00	30.110 
17:45	77.2	77.2	76.8	17	29.0	3	6	90	0.00	30.111 
17:50	77.0	77.0	76.7	17	28.8	2	5	68	0.00	30.111 
17:55	76.7	76.7	76.6	18	30.0	2	6	112	0.00	30.111 
18:00	76.7	76.7	76.5	17	28.6	2	5	112	0.00	30.112 
18:05	76.5	76.5	76.5	18	29.8	1	5	90	0.00	30.112 
18:10	76.5	76.5	76.6	19	31.2	1	4	90	0.00	30.112 
18:15	76.5	76.5	76.6	19	31.2	2	9	90	0.00	30.109 
18:20	76.7	76.7	76.7	19	31.3	2	4	90	0.00	30.109 
18:25	76.5	76.5	76.6	19	31.2	1	5	90	0.00	30.109 
18:30	76.1	76.1	76.4	19	30.8	1	4	90	0.00	30.111 
18:35	75.8	75.8	76.3	20	31.9	1	3	90	0.00	30.111 
18:40	75.4	75.4	76.2	20	31.5	1	2	90	0.00	30.111 
18:45	75.1	75.1	76.0	20	31.3	1	4	90	0.00	30.111 
18:50	75.1	75.1	76.1	21	32.5	1	3	90	0.00	30.111 
18:55	74.9	74.9	74.9	20	31.1	2	5	112	0.00	30.111 
19:00	74.9	74.9	74.9	21	32.3	0	2	68	0.00	30.112 
19:05	74.9	74.9	74.9	21	32.3	1	4	68	0.00	30.112 
19:10	75.1	75.1	76.2	22	33.6	1	4	68	0.00	30.112 
19:15	75.3	75.3	76.2	21	32.7	1	4	68	0.00	30.109 
19:20	75.4	75.4	76.4	22	33.9	1	3	68	0.00	30.109 
19:25	75.4	75.4	76.4	22	33.9	2	4	90	0.00	30.109 
19:30	75.3	75.3	76.6	25	37.0	2	5	90	0.00	30.115 
19:35	74.7	74.7	74.7	26	37.5	2	5	68	0.00	30.115 
19:40	74.6	74.6	74.6	26	37.4	1	4	90	0.00	30.115 
19:45	74.2	74.2	74.2	26	37.1	1	4	135	0.00	30.121 
19:50	74.0	74.0	74.0	26	36.9	1	3	112	0.00	30.121 
19:55	73.9	73.9	73.9	26	36.8	1	5	68	0.00	30.121 
20:00	73.5	73.5	73.5	26	36.5	1	4	68	0.00	30.123 
20:05	73.0	73.0	73.0	27	37.0	2	6	90	0.00	30.123 
20:10	72.7	72.7	72.7	27	36.8	1	3	90	0.00	30.123 
20:15	72.3	72.3	72.3	27	36.4	1	4	90	0.00	30.121 
20:20	72.1	72.1	72.1	27	36.3	1	4	90	0.00	30.121 
20:25	71.8	71.8	71.8	28	36.9	1	3	45	0.00	30.121 
20:30	71.6	71.6	71.6	28	36.8	2	4	68	0.00	30.123 
20:35	71.5	71.5	71.5	28	36.7	1	3	68	0.00	30.123 
20:40	71.1	71.1	71.1	28	36.3	2	3	68	0.00	30.123 
20:45	70.9	70.9	70.9	29	37.0	2	4	90	0.00	30.120 
20:50	70.6	70.6	70.6	29	36.8	1	4	90	0.00	30.120 
20:55	70.3	70.3	70.3	30	37.4	1	4	68	0.00	30.120 
21:00	70.1	70.1	70.1	31	38.1	1	6	68	0.00	30.113 
21:05	69.8	69.8	69.8	32	38.6	1	3	90	0.00	30.113 
21:10	69.3	69.3	69.3	33	39.0	1	4	90	0.00	30.113 
21:15	68.9	68.9	68.9	35	40.1	2	4	90	0.00	30.107 
21:20	68.6	68.6	68.6	35	39.8	2	3	68	0.00	30.107 
21:25	68.3	68.3	68.3	36	40.3	2	5	68	0.00	30.107 
21:30	67.9	67.9	67.9	37	40.7	2	5	68	0.00	30.105 
21:35	67.4	67.4	67.4	38	40.9	2	4	90	0.00	30.105 
21:40	67.1	67.1	67.1	39	41.3	2	5	68	0.00	30.105 
21:45	66.8	66.8	66.8	40	41.7	2	4	68	0.00	30.105 
21:50	66.4	66.4	66.4	41	42.0	2	5	90	0.00	30.105 
21:55	66.1	66.1	66.1	41	41.7	2	6	68	0.00	30.105 
22:00	65.8	65.8	65.8	42	42.1	2	5	68	0.00	30.105 
22:05	65.6	65.6	65.6	42	41.9	2	4	68	0.00	30.105 
22:10	65.3	65.3	65.3	43	42.2	2	4	68	0.00	30.105 
22:15	65.0	65.0	65.0	43	42.0	1	3	68	0.00	30.103 
22:20	64.7	64.7	64.7	44	42.3	2	4	68	0.00	30.103 
22:25	64.3	64.3	64.3	44	41.9	1	3	68	0.00	30.103 
22:30	64.0	64.0	64.0	44	41.6	1	3	68	0.00	30.108 
22:35	63.9	63.9	63.9	45	42.1	1	3	68	0.00	30.108 
22:40	63.5	63.5	63.5	45	41.8	1	3	68	0.00	30.108 
22:45	63.2	63.2	63.2	45	41.5	1	3	68	0.00	30.107 
22:50	63.1	63.1	63.1	46	42.0	1	3	68	0.00	30.107 
22:55	62.7	62.7	62.7	46	41.6	1	2	68	0.00	30.107 
23:00	62.6	62.6	62.6	47	42.1	0	2	68	0.00	30.110 
23:05	62.3	62.3	62.3	47	41.8	0	2	68	0.00	30.110 
23:10	62.0	62.0	62.0	47	41.5	0	2	68	0.00	30.110 
23:15	61.8	61.8	61.8	48	41.9	0	2	68	0.00	30.109 
23:20	61.5	61.5	61.5	49	42.2	0	1	68	0.00	30.109 
23:25	61.2	61.2	61.2	49	41.9	0	0	---	0.00	30.109 
23:30	60.7	60.7	60.7	50	41.9	0	0	---	0.00	30.116 
23:35	60.4	60.4	60.4	50	41.7	0	0	---	0.00	30.116 
23:40	59.9	59.9	59.9	52	42.2	0	0	---	0.00	30.116 
23:45	59.5	59.5	59.5	52	41.9	0	0	---	0.00	30.115 
23:50	59.0	59.0	59.0	53	41.9	0	0	---	0.00	30.115 
23:55	58.7	58.7	58.7	54	42.1	0	0	---	0.00	30.115 

CoCoRaHS
IN-AL-39
A2 Web Hosting
Creative Commons License
GoDaddy
search engine by freefind advanced

loaded 2018-11-17 05:50:30 • last modified 2010-11-18 10:43:29
Privacy PolicyDisclaimer
• wx.awcolley.com is powered by PmWiki v.2002016 •
• all content (unless otherwise noted) © 2018 A W Colley